Waterford, Virginia
Current Conditions -  °F | °C
As of 4:15 AM on Wednesday 28 Jan 2015 (Local Time) from KJYO Reporting Station
Clear Clear  
Wind Chill: 10°   Ceiling: Unl
Heat Index: 23°   Visibility: 10mi
Dew Point: 14°   Wind: 16mph
Humidity: 68%   Direction: 340°NNW
Pressure: 30.09"   Gusts: 23mph
Location:  39.19°N, 77.61°W
Report Text: KJYO 280915Z AUTO 34014G20KT 10SM CLR M05/M10 A3009 RMK AO2
Loading
Personal Weather Stations






























Interactive Weather Map New forecast layout! Learn more

10-Day Weather Forecast

Advertisements
Track Severe Weather on mobile